createdAt,value
2022-10-08T00:04:03.899Z,6.38
2022-10-08T00:09:06.746Z,5.32
2022-10-08T00:14:09.385Z,5.32
2022-10-08T00:19:14.579Z,3.30
2022-10-08T00:24:17.748Z,2.78
2022-10-08T00:29:21.095Z,4.85
2022-10-08T00:34:23.638Z,8.30
2022-10-08T00:39:25.222Z,2.35
2022-10-08T00:44:53.501Z,5.57
2022-10-08T00:49:58.942Z,6.25
2022-10-08T00:55:06.288Z,6.63
2022-10-08T01:00:13.283Z,5.47
2022-10-08T01:05:17.518Z,9.93
2022-10-08T01:10:33.268Z,7.72
2022-10-08T01:15:41.964Z,7.75
2022-10-08T01:20:52.472Z,6.30
2022-10-08T01:26:06.183Z,11.23
2022-10-08T01:31:22.893Z,3.90
2022-10-08T01:36:27.575Z,4.97
2022-10-08T01:41:31.424Z,7.15
2022-10-08T01:46:34.166Z,3.38
2022-10-08T01:51:50.421Z,5.40
2022-10-08T01:56:55.339Z,5.15
2022-10-08T02:01:59.554Z,5.22
2022-10-08T02:07:08.841Z,3.53
2022-10-08T02:12:11.379Z,8.98
2022-10-08T02:17:18.457Z,7.30
2022-10-08T02:22:24.043Z,5.03
2022-10-08T02:27:39.406Z,2.30
2022-10-08T02:32:50.751Z,5.72
2022-10-08T02:38:04.024Z,4.95
2022-10-08T02:43:12.224Z,4.38
2022-10-08T02:48:20.274Z,2.42
2022-10-08T02:53:23.643Z,7.32
2022-10-08T02:58:26.251Z,6.65
2022-10-08T03:03:34.886Z,5.35
2022-10-08T03:08:41.431Z,5.53
2022-10-08T03:13:48.099Z,2.95
2022-10-08T03:18:52.076Z,9.85
2022-10-08T03:23:53.735Z,3.72
2022-10-08T03:28:55.169Z,8.55
2022-10-08T03:33:57.734Z,4.65
2022-10-08T03:38:59.191Z,11.23
2022-10-08T03:44:00.730Z,5.22
2022-10-08T03:49:02.230Z,4.85
2022-10-08T03:54:03.782Z,4.43
2022-10-08T03:59:05.201Z,4.65
2022-10-08T04:04:06.608Z,2.95
2022-10-08T04:09:10.016Z,7.00
2022-10-08T04:14:11.488Z,3.85
2022-10-08T04:19:13.073Z,8.05
2022-10-08T04:24:14.576Z,3.92
2022-10-08T04:29:16.316Z,7.13
2022-10-08T04:34:18.352Z,5.13
2022-10-08T04:39:19.826Z,5.72
2022-10-08T04:44:21.380Z,4.70
2022-10-08T04:49:22.852Z,4.13
2022-10-08T04:54:24.408Z,5.57
2022-10-08T04:59:25.953Z,4.60
2022-10-08T05:04:27.434Z,5.70
2022-10-08T05:09:28.848Z,6.10
2022-10-08T05:14:30.256Z,3.10
2022-10-08T05:19:31.732Z,5.82
2022-10-08T05:24:33.924Z,5.95
2022-10-08T05:29:35.438Z,6.00
2022-10-08T05:34:36.979Z,5.85
2022-10-08T05:39:38.434Z,8.38
2022-10-08T05:44:42.418Z,11.20
2022-10-08T05:49:46.788Z,4.78
2022-10-08T05:54:48.199Z,6.72
2022-10-08T05:59:49.674Z,4.75
2022-10-08T06:04:51.407Z,4.22
2022-10-08T06:09:52.954Z,4.45
2022-10-08T06:14:54.480Z,7.32
2022-10-08T06:19:55.953Z,7.50
2022-10-08T06:24:57.380Z,8.02
2022-10-08T06:29:58.816Z,8.57
2022-10-08T06:35:00.239Z,7.90
2022-10-08T06:40:01.652Z,13.18
2022-10-08T06:45:03.271Z,11.82
2022-10-08T06:50:05.394Z,13.15
2022-10-08T06:55:07.200Z,14.90
2022-10-08T07:00:09.324Z,15.68
2022-10-08T07:05:12.012Z,15.93
2022-10-08T07:10:16.591Z,14.95
2022-10-08T07:15:19.929Z,17.17
2022-10-08T07:20:21.344Z,13.73
2022-10-08T07:25:22.877Z,12.98
2022-10-08T07:30:24.285Z,20.08
2022-10-08T07:35:25.708Z,14.85
2022-10-08T07:40:27.129Z,13.60
2022-10-08T07:45:28.631Z,12.15
2022-10-08T07:50:30.088Z,12.88
2022-10-08T07:55:31.519Z,15.75
2022-10-08T08:00:33.133Z,11.40
2022-10-08T08:05:35.202Z,15.25
2022-10-08T08:10:36.620Z,14.60
2022-10-08T08:15:38.131Z,13.07
2022-10-08T08:20:40.180Z,15.70
2022-10-08T08:25:41.734Z,9.50
2022-10-08T08:30:43.148Z,14.25
2022-10-08T08:35:55.528Z,16.02
2022-10-08T08:41:16.427Z,15.05
2022-10-08T08:46:21.509Z,14.93
2022-10-08T08:51:23.047Z,16.30
2022-10-08T08:56:24.710Z,13.68
2022-10-08T09:01:42.664Z,8.23
2022-10-08T09:06:45.471Z,12.90
2022-10-08T09:11:47.967Z,10.27
2022-10-08T09:16:49.550Z,6.60
2022-10-08T09:21:51.107Z,9.68
2022-10-08T09:26:53.677Z,4.43
2022-10-08T09:31:55.212Z,6.00
2022-10-08T09:37:13.291Z,9.68
2022-10-08T09:42:19.884Z,6.22
2022-10-08T09:47:23.419Z,8.23
2022-10-08T09:52:27.528Z,2.58
2022-10-08T09:57:31.151Z,5.13
2022-10-08T10:02:37.785Z,4.15
2022-10-08T10:07:44.688Z,4.30
2022-10-08T10:12:50.953Z,3.45
2022-10-08T10:17:59.682Z,2.63
2022-10-08T10:23:06.325Z,5.40
2022-10-08T10:28:15.819Z,7.75
2022-10-08T10:38:40.747Z,4.63
2022-10-08T10:43:50.689Z,1.65
2022-10-08T10:48:52.338Z,6.30
2022-10-08T10:54:11.344Z,3.30
2022-10-08T10:59:47.322Z,5.53
2022-10-08T11:05:02.101Z,4.38
2022-10-08T11:10:30.783Z,5.93
2022-10-08T11:15:44.816Z,3.17
2022-10-08T11:21:19.188Z,3.53
2022-10-08T11:26:25.291Z,3.80
2022-10-08T11:31:38.023Z,1.08
2022-10-08T11:36:47.928Z,2.10
2022-10-08T11:42:07.247Z,1.55
2022-10-08T11:47:40.126Z,4.82
2022-10-08T11:52:41.655Z,3.80
2022-10-08T11:58:07.553Z,2.47
2022-10-08T12:03:28.054Z,11.73
2022-10-08T12:08:49.523Z,1.42
2022-10-08T12:14:13.151Z,2.30
2022-10-08T12:19:36.015Z,1.15
2022-10-08T12:24:37.424Z,5.63
2022-10-08T12:30:09.057Z,1.85
2022-10-08T12:35:25.681Z,1.73
2022-10-08T12:40:41.907Z,1.48
2022-10-08T12:45:55.813Z,1.75
2022-10-08T12:51:12.736Z,4.70
2022-10-08T12:56:18.126Z,2.72
2022-10-08T13:01:20.982Z,4.65
2022-10-08T13:06:31.602Z,7.82
2022-10-08T13:11:34.663Z,0.90
2022-10-08T13:16:46.476Z,1.20
2022-10-08T13:22:02.164Z,0.95
2022-10-08T13:27:03.783Z,2.88
2022-10-08T13:32:16.183Z,2.55
2022-10-08T13:37:38.130Z,7.63
2022-10-08T13:42:46.353Z,2.78
2022-10-08T13:47:48.986Z,2.03
2022-10-08T13:52:54.618Z,1.13
2022-10-08T13:57:59.822Z,4.03
2022-10-08T14:03:01.482Z,2.63
2022-10-08T14:08:05.558Z,1.95
2022-10-08T14:13:07.115Z,5.10
2022-10-08T14:18:08.594Z,2.80
2022-10-08T14:23:13.105Z,3.40
2022-10-08T14:28:14.615Z,3.25
2022-10-08T14:33:16.154Z,1.40
2022-10-08T14:38:21.476Z,3.53
2022-10-08T14:43:27.537Z,6.32
2022-10-08T14:48:29.288Z,1.92
2022-10-08T14:53:30.847Z,4.28
2022-10-08T14:58:32.377Z,2.47
2022-10-08T15:03:34.294Z,4.13
2022-10-08T15:08:35.788Z,2.85
2022-10-08T15:13:37.229Z,2.97
2022-10-08T15:18:39.085Z,4.30
2022-10-08T15:23:40.541Z,3.97
2022-10-08T15:28:43.319Z,1.90
2022-10-08T15:33:49.724Z,1.02
2022-10-08T15:38:57.336Z,5.30
2022-10-08T15:44:11.104Z,3.17
2022-10-08T15:49:12.590Z,2.92
2022-10-08T15:54:14.403Z,1.77
2022-10-08T15:59:15.832Z,4.15
2022-10-08T16:04:17.234Z,2.53
2022-10-08T16:09:20.745Z,2.25
2022-10-08T16:14:24.770Z,2.97
2022-10-08T16:19:27.465Z,3.42
2022-10-08T16:24:29.087Z,7.53
2022-10-08T16:29:30.591Z,2.38
2022-10-08T16:34:32.076Z,2.70
2022-10-08T16:39:33.517Z,1.83
2022-10-08T16:44:34.913Z,2.00
2022-10-08T16:49:36.328Z,2.83
2022-10-08T16:54:37.750Z,2.85
2022-10-08T16:59:39.243Z,3.58
2022-10-08T17:04:40.755Z,8.60
2022-10-08T17:09:42.210Z,2.65
2022-10-08T17:14:43.724Z,1.58
2022-10-08T17:19:45.489Z,4.78
2022-10-08T17:24:46.932Z,2.47
2022-10-08T17:29:48.404Z,3.38
2022-10-08T17:34:49.802Z,9.15
2022-10-08T17:39:51.248Z,3.50
2022-10-08T17:44:52.689Z,3.17
2022-10-08T17:49:54.112Z,6.95
2022-10-08T17:54:55.532Z,2.45
2022-10-08T17:59:56.963Z,1.48
2022-10-08T18:04:58.375Z,6.22
2022-10-08T18:09:59.817Z,4.05
2022-10-08T18:15:01.303Z,4.30
2022-10-08T18:20:02.833Z,4.20
2022-10-08T18:25:05.114Z,2.15
2022-10-08T18:30:07.197Z,5.13
2022-10-08T18:35:11.120Z,2.70
2022-10-08T18:40:12.762Z,3.08
2022-10-08T18:45:14.236Z,9.82
2022-10-08T18:50:15.727Z,4.53
2022-10-08T18:55:17.277Z,5.65
2022-10-08T19:00:18.703Z,2.95
2022-10-08T19:05:20.192Z,8.10
2022-10-08T19:10:21.640Z,4.28
2022-10-08T19:15:23.076Z,6.55
2022-10-08T19:20:24.479Z,5.13
2022-10-08T19:25:26.780Z,4.15
2022-10-08T19:30:33.937Z,2.97
2022-10-08T19:35:35.357Z,4.65
2022-10-08T19:40:36.791Z,4.20
2022-10-08T19:45:38.297Z,14.20
2022-10-08T19:50:39.808Z,6.25
2022-10-08T19:55:41.227Z,6.55
2022-10-08T20:00:42.616Z,7.15
2022-10-08T20:05:44.022Z,6.30
2022-10-08T20:10:45.585Z,5.85
2022-10-08T20:15:51.089Z,4.68
2022-10-08T20:21:03.390Z,5.68
2022-10-08T20:26:09.220Z,5.35
2022-10-08T20:31:16.984Z,6.32
2022-10-08T20:36:18.628Z,6.93
2022-10-08T20:41:23.620Z,6.60
2022-10-08T20:46:28.934Z,12.77
2022-10-08T20:51:31.011Z,8.18
2022-10-08T20:56:39.246Z,4.82
2022-10-08T21:01:41.517Z,5.43
2022-10-08T21:06:46.124Z,4.32
2022-10-08T21:11:47.886Z,5.72
2022-10-08T21:16:49.862Z,7.65
2022-10-08T21:21:52.099Z,7.53
2022-10-08T21:26:53.534Z,6.50
2022-10-08T21:31:55.025Z,6.47
2022-10-08T21:36:56.476Z,7.72
2022-10-08T21:41:57.871Z,4.15
2022-10-08T21:46:59.363Z,9.63
2022-10-08T21:52:00.968Z,9.25
2022-10-08T21:57:02.417Z,10.85
2022-10-08T22:02:03.912Z,10.13
2022-10-08T22:07:05.436Z,7.60
2022-10-08T22:12:06.897Z,4.70
2022-10-08T22:17:08.309Z,5.20
2022-10-08T22:22:10.140Z,5.13
2022-10-08T22:27:11.577Z,6.45
2022-10-08T22:32:13.024Z,7.18
2022-10-08T22:37:14.500Z,6.90
2022-10-08T22:42:15.924Z,4.72
2022-10-08T22:47:17.359Z,9.38
2022-10-08T22:52:18.771Z,4.68
2022-10-08T22:57:20.399Z,7.30
2022-10-08T23:02:21.925Z,10.57
2022-10-08T23:07:23.513Z,6.90
2022-10-08T23:12:25.066Z,13.95
2022-10-08T23:17:26.488Z,4.93
2022-10-08T23:22:28.416Z,7.47
2022-10-08T23:27:29.909Z,10.43
2022-10-08T23:32:31.332Z,5.57
2022-10-08T23:37:32.724Z,6.72
2022-10-08T23:42:34.142Z,5.75
2022-10-08T23:47:35.582Z,7.50
2022-10-08T23:52:37.008Z,4.43
2022-10-08T23:57:38.436Z,9.45
